sensor_id;sensor_type;location;lat;lon;timestamp;P1;durP1;ratioP1;P2;durP2;ratioP2
19131;SDS011;9698;51.976;7.570;2023-10-08T00:00:44;13.97;;;6.23;;
19131;SDS011;9698;51.976;7.570;2023-10-08T00:03:13;13.37;;;5.97;;
19131;SDS011;9698;51.976;7.570;2023-10-08T00:05:43;16.57;;;6.00;;
19131;SDS011;9698;51.976;7.570;2023-10-08T00:08:12;14.30;;;5.90;;
19131;SDS011;9698;51.976;7.570;2023-10-08T00:10:43;10.60;;;5.37;;
19131;SDS011;9698;51.976;7.570;2023-10-08T00:13:11;12.07;;;5.70;;
19131;SDS011;9698;51.976;7.570;2023-10-08T00:15:41;14.33;;;5.63;;
19131;SDS011;9698;51.976;7.570;2023-10-08T00:18:18;11.63;;;6.13;;
19131;SDS011;9698;51.976;7.570;2023-10-08T00:20:47;13.70;;;5.80;;
19131;SDS011;9698;51.976;7.570;2023-10-08T00:23:21;15.17;;;5.80;;
19131;SDS011;9698;51.976;7.570;2023-10-08T00:25:52;13.37;;;5.27;;
19131;SDS011;9698;51.976;7.570;2023-10-08T00:28:20;14.67;;;5.57;;
19131;SDS011;9698;51.976;7.570;2023-10-08T00:30:48;10.83;;;5.40;;
19131;SDS011;9698;51.976;7.570;2023-10-08T00:33:16;14.07;;;6.23;;
19131;SDS011;9698;51.976;7.570;2023-10-08T00:35:45;13.70;;;5.50;;
19131;SDS011;9698;51.976;7.570;2023-10-08T00:38:13;12.60;;;5.87;;
19131;SDS011;9698;51.976;7.570;2023-10-08T00:40:42;13.63;;;5.73;;
19131;SDS011;9698;51.976;7.570;2023-10-08T00:43:29;15.97;;;6.00;;
19131;SDS011;9698;51.976;7.570;2023-10-08T00:45:58;11.30;;;5.80;;
19131;SDS011;9698;51.976;7.570;2023-10-08T00:48:26;10.77;;;5.73;;
19131;SDS011;9698;51.976;7.570;2023-10-08T00:50:55;11.50;;;6.50;;
19131;SDS011;9698;51.976;7.570;2023-10-08T00:53:42;14.63;;;6.23;;
19131;SDS011;9698;51.976;7.570;2023-10-08T00:56:11;17.03;;;6.10;;
19131;SDS011;9698;51.976;7.570;2023-10-08T00:58:41;14.63;;;6.03;;
19131;SDS011;9698;51.976;7.570;2023-10-08T01:01:12;11.57;;;6.00;;
19131;SDS011;9698;51.976;7.570;2023-10-08T01:03:42;15.27;;;6.27;;
19131;SDS011;9698;51.976;7.570;2023-10-08T01:06:11;12.03;;;5.77;;
19131;SDS011;9698;51.976;7.570;2023-10-08T01:08:44;14.20;;;6.70;;
19131;SDS011;9698;51.976;7.570;2023-10-08T01:11:19;17.43;;;6.53;;
19131;SDS011;9698;51.976;7.570;2023-10-08T01:13:52;16.63;;;6.27;;
19131;SDS011;9698;51.976;7.570;2023-10-08T01:16:21;16.40;;;6.73;;
19131;SDS011;9698;51.976;7.570;2023-10-08T01:18:51;16.10;;;6.93;;
19131;SDS011;9698;51.976;7.570;2023-10-08T01:21:21;16.87;;;6.27;;
19131;SDS011;9698;51.976;7.570;2023-10-08T01:24:02;17.13;;;6.63;;
19131;SDS011;9698;51.976;7.570;2023-10-08T01:26:32;16.73;;;6.90;;
19131;SDS011;9698;51.976;7.570;2023-10-08T01:29:00;13.07;;;6.20;;
19131;SDS011;9698;51.976;7.570;2023-10-08T01:31:33;19.50;;;6.80;;
19131;SDS011;9698;51.976;7.570;2023-10-08T01:34:03;19.47;;;6.50;;
19131;SDS011;9698;51.976;7.570;2023-10-08T01:36:30;15.53;;;6.60;;
19131;SDS011;9698;51.976;7.570;2023-10-08T01:39:02;17.13;;;7.00;;
19131;SDS011;9698;51.976;7.570;2023-10-08T01:41:32;17.47;;;7.40;;
19131;SDS011;9698;51.976;7.570;2023-10-08T01:44:06;15.17;;;7.43;;
19131;SDS011;9698;51.976;7.570;2023-10-08T01:46:34;23.23;;;7.87;;
19131;SDS011;9698;51.976;7.570;2023-10-08T01:49:08;23.27;;;9.60;;
19131;SDS011;9698;51.976;7.570;2023-10-08T01:51:42;17.30;;;7.43;;
19131;SDS011;9698;51.976;7.570;2023-10-08T01:54:13;18.90;;;7.53;;
19131;SDS011;9698;51.976;7.570;2023-10-08T01:56:44;22.07;;;9.30;;
19131;SDS011;9698;51.976;7.570;2023-10-08T01:59:13;21.77;;;8.13;;
19131;SDS011;9698;51.976;7.570;2023-10-08T02:01:42;17.27;;;8.13;;
19131;SDS011;9698;51.976;7.570;2023-10-08T02:04:11;14.93;;;8.13;;
19131;SDS011;9698;51.976;7.570;2023-10-08T02:06:40;17.27;;;8.93;;
19131;SDS011;9698;51.976;7.570;2023-10-08T02:09:07;19.90;;;8.87;;
19131;SDS011;9698;51.976;7.570;2023-10-08T02:11:43;22.57;;;9.37;;
19131;SDS011;9698;51.976;7.570;2023-10-08T02:14:12;17.80;;;8.73;;
19131;SDS011;9698;51.976;7.570;2023-10-08T02:16:41;22.53;;;8.50;;
19131;SDS011;9698;51.976;7.570;2023-10-08T02:19:10;22.20;;;9.27;;
19131;SDS011;9698;51.976;7.570;2023-10-08T02:21:39;22.40;;;9.07;;
19131;SDS011;9698;51.976;7.570;2023-10-08T02:24:08;20.80;;;9.83;;
19131;SDS011;9698;51.976;7.570;2023-10-08T02:26:37;22.57;;;10.03;;
19131;SDS011;9698;51.976;7.570;2023-10-08T02:29:05;23.07;;;9.43;;
19131;SDS011;9698;51.976;7.570;2023-10-08T02:31:37;21.47;;;10.13;;
19131;SDS011;9698;51.976;7.570;2023-10-08T02:34:06;15.33;;;7.97;;
19131;SDS011;9698;51.976;7.570;2023-10-08T02:36:34;15.20;;;5.77;;
19131;SDS011;9698;51.976;7.570;2023-10-08T02:39:02;13.70;;;5.17;;
19131;SDS011;9698;51.976;7.570;2023-10-08T02:41:33;3.50;;;2.33;;
19131;SDS011;9698;51.976;7.570;2023-10-08T02:44:00;2.80;;;1.60;;
19131;SDS011;9698;51.976;7.570;2023-10-08T02:46:31;1.37;;;1.27;;
19131;SDS011;9698;51.976;7.570;2023-10-08T02:48:59;1.77;;;1.30;;
19131;SDS011;9698;51.976;7.570;2023-10-08T02:51:30;1.70;;;1.40;;
19131;SDS011;9698;51.976;7.570;2023-10-08T02:53:58;1.50;;;1.40;;
19131;SDS011;9698;51.976;7.570;2023-10-08T02:56:26;1.40;;;1.30;;
19131;SDS011;9698;51.976;7.570;2023-10-08T02:58:58;1.77;;;1.30;;
19131;SDS011;9698;51.976;7.570;2023-10-08T03:01:28;1.20;;;1.10;;
19131;SDS011;9698;51.976;7.570;2023-10-08T03:04:00;3.53;;;1.20;;
19131;SDS011;9698;51.976;7.570;2023-10-08T03:06:30;1.17;;;1.10;;
19131;SDS011;9698;51.976;7.570;2023-10-08T03:08:59;1.17;;;1.10;;
19131;SDS011;9698;51.976;7.570;2023-10-08T03:11:30;3.03;;;1.40;;
19131;SDS011;9698;51.976;7.570;2023-10-08T03:13:58;1.00;;;1.00;;
19131;SDS011;9698;51.976;7.570;2023-10-08T03:16:25;1.20;;;1.17;;
19131;SDS011;9698;51.976;7.570;2023-10-08T03:19:00;1.20;;;1.10;;
19131;SDS011;9698;51.976;7.570;2023-10-08T03:21:32;1.23;;;1.13;;
19131;SDS011;9698;51.976;7.570;2023-10-08T03:24:15;1.20;;;1.10;;
19131;SDS011;9698;51.976;7.570;2023-10-08T03:27:04;1.23;;;1.00;;
19131;SDS011;9698;51.976;7.570;2023-10-08T03:29:33;1.10;;;1.10;;
19131;SDS011;9698;51.976;7.570;2023-10-08T03:32:07;1.23;;;1.17;;
19131;SDS011;9698;51.976;7.570;2023-10-08T03:34:40;1.30;;;1.20;;
19131;SDS011;9698;51.976;7.570;2023-10-08T03:37:12;1.00;;;1.00;;
19131;SDS011;9698;51.976;7.570;2023-10-08T03:39:55;1.40;;;1.30;;
19131;SDS011;9698;51.976;7.570;2023-10-08T03:42:29;0.97;;;0.90;;
19131;SDS011;9698;51.976;7.570;2023-10-08T03:45:01;1.40;;;1.30;;
19131;SDS011;9698;51.976;7.570;2023-10-08T03:47:37;1.60;;;1.50;;
19131;SDS011;9698;51.976;7.570;2023-10-08T03:50:12;1.40;;;1.30;;
19131;SDS011;9698;51.976;7.570;2023-10-08T03:52:43;1.60;;;1.50;;
19131;SDS011;9698;51.976;7.570;2023-10-08T03:55:13;1.90;;;1.40;;
19131;SDS011;9698;51.976;7.570;2023-10-08T03:57:48;1.57;;;1.47;;
19131;SDS011;9698;51.976;7.570;2023-10-08T04:00:23;1.60;;;1.50;;
19131;SDS011;9698;51.976;7.570;2023-10-08T04:02:57;2.70;;;1.40;;
19131;SDS011;9698;51.976;7.570;2023-10-08T04:05:34;1.40;;;1.30;;
19131;SDS011;9698;51.976;7.570;2023-10-08T04:08:10;1.50;;;1.40;;
19131;SDS011;9698;51.976;7.570;2023-10-08T04:10:46;1.73;;;1.00;;
19131;SDS011;9698;51.976;7.570;2023-10-08T04:13:34;0.90;;;0.90;;
19131;SDS011;9698;51.976;7.570;2023-10-08T04:16:10;0.70;;;0.70;;
19131;SDS011;9698;51.976;7.570;2023-10-08T04:18:38;0.73;;;0.70;;
19131;SDS011;9698;51.976;7.570;2023-10-08T04:21:06;0.67;;;0.67;;
19131;SDS011;9698;51.976;7.570;2023-10-08T04:23:39;0.60;;;0.60;;
19131;SDS011;9698;51.976;7.570;2023-10-08T04:26:10;1.33;;;0.70;;
19131;SDS011;9698;51.976;7.570;2023-10-08T04:28:38;0.80;;;0.80;;
19131;SDS011;9698;51.976;7.570;2023-10-08T04:31:07;0.97;;;0.97;;
19131;SDS011;9698;51.976;7.570;2023-10-08T04:33:44;0.80;;;0.80;;
19131;SDS011;9698;51.976;7.570;2023-10-08T04:36:13;0.97;;;0.80;;
19131;SDS011;9698;51.976;7.570;2023-10-08T04:38:46;0.90;;;0.90;;
19131;SDS011;9698;51.976;7.570;2023-10-08T04:41:15;0.90;;;0.90;;
19131;SDS011;9698;51.976;7.570;2023-10-08T04:43:45;1.20;;;1.03;;
19131;SDS011;9698;51.976;7.570;2023-10-08T04:46:15;1.40;;;0.90;;
19131;SDS011;9698;51.976;7.570;2023-10-08T04:48:48;1.23;;;1.20;;
19131;SDS011;9698;51.976;7.570;2023-10-08T04:51:16;1.20;;;1.10;;
19131;SDS011;9698;51.976;7.570;2023-10-08T04:53:48;1.20;;;1.10;;
19131;SDS011;9698;51.976;7.570;2023-10-08T04:56:16;1.07;;;1.07;;
19131;SDS011;9698;51.976;7.570;2023-10-08T04:58:44;1.43;;;1.20;;
19131;SDS011;9698;51.976;7.570;2023-10-08T05:01:13;1.30;;;1.20;;
19131;SDS011;9698;51.976;7.570;2023-10-08T05:03:46;1.80;;;1.17;;
19131;SDS011;9698;51.976;7.570;2023-10-08T05:06:35;1.00;;;1.00;;
19131;SDS011;9698;51.976;7.570;2023-10-08T05:09:25;1.40;;;1.30;;
19131;SDS011;9698;51.976;7.570;2023-10-08T05:12:05;1.23;;;1.10;;
19131;SDS011;9698;51.976;7.570;2023-10-08T05:14:55;1.30;;;1.20;;
19131;SDS011;9698;51.976;7.570;2023-10-08T05:17:48;1.13;;;1.10;;
19131;SDS011;9698;51.976;7.570;2023-10-08T05:20:36;1.53;;;1.43;;
19131;SDS011;9698;51.976;7.570;2023-10-08T05:23:25;1.20;;;1.10;;
19131;SDS011;9698;51.976;7.570;2023-10-08T05:26:11;1.57;;;1.10;;
19131;SDS011;9698;51.976;7.570;2023-10-08T05:28:47;1.93;;;1.20;;
19131;SDS011;9698;51.976;7.570;2023-10-08T05:31:28;1.60;;;1.30;;
19131;SDS011;9698;51.976;7.570;2023-10-08T05:34:13;2.00;;;1.50;;
19131;SDS011;9698;51.976;7.570;2023-10-08T05:36:44;2.10;;;1.40;;
19131;SDS011;9698;51.976;7.570;2023-10-08T05:39:41;1.33;;;1.23;;
19131;SDS011;9698;51.976;7.570;2023-10-08T05:42:13;1.60;;;1.50;;
19131;SDS011;9698;51.976;7.570;2023-10-08T05:44:44;1.97;;;1.77;;
19131;SDS011;9698;51.976;7.570;2023-10-08T05:47:31;2.60;;;1.50;;
19131;SDS011;9698;51.976;7.570;2023-10-08T05:50:08;1.80;;;1.70;;
19131;SDS011;9698;51.976;7.570;2023-10-08T05:53:05;3.97;;;2.30;;
19131;SDS011;9698;51.976;7.570;2023-10-08T05:55:46;2.40;;;2.20;;
19131;SDS011;9698;51.976;7.570;2023-10-08T05:58:27;2.50;;;2.30;;
19131;SDS011;9698;51.976;7.570;2023-10-08T06:01:11;2.97;;;2.50;;
19131;SDS011;9698;51.976;7.570;2023-10-08T06:03:55;4.87;;;2.70;;
19131;SDS011;9698;51.976;7.570;2023-10-08T06:06:29;2.50;;;2.30;;
19131;SDS011;9698;51.976;7.570;2023-10-08T06:09:13;2.33;;;2.17;;
19131;SDS011;9698;51.976;7.570;2023-10-08T06:11:48;2.37;;;2.17;;
19131;SDS011;9698;51.976;7.570;2023-10-08T06:14:37;2.40;;;2.20;;
19131;SDS011;9698;51.976;7.570;2023-10-08T06:17:34;2.23;;;1.90;;
19131;SDS011;9698;51.976;7.570;2023-10-08T06:20:24;3.13;;;2.13;;
19131;SDS011;9698;51.976;7.570;2023-10-08T06:22:53;2.70;;;2.13;;
19131;SDS011;9698;51.976;7.570;2023-10-08T06:25:27;2.43;;;2.23;;
19131;SDS011;9698;51.976;7.570;2023-10-08T06:27:56;2.20;;;2.03;;
19131;SDS011;9698;51.976;7.570;2023-10-08T06:30:24;2.20;;;2.00;;
19131;SDS011;9698;51.976;7.570;2023-10-08T06:32:55;2.20;;;2.00;;
19131;SDS011;9698;51.976;7.570;2023-10-08T06:35:24;1.90;;;1.80;;
19131;SDS011;9698;51.976;7.570;2023-10-08T06:37:54;1.90;;;1.80;;
19131;SDS011;9698;51.976;7.570;2023-10-08T06:40:26;1.90;;;1.73;;
19131;SDS011;9698;51.976;7.570;2023-10-08T06:43:09;2.97;;;1.67;;
19131;SDS011;9698;51.976;7.570;2023-10-08T06:45:49;1.80;;;1.70;;
19131;SDS011;9698;51.976;7.570;2023-10-08T06:48:18;2.17;;;1.93;;
19131;SDS011;9698;51.976;7.570;2023-10-08T06:50:48;1.50;;;1.40;;
19131;SDS011;9698;51.976;7.570;2023-10-08T06:53:23;1.50;;;1.40;;
19131;SDS011;9698;51.976;7.570;2023-10-08T06:55:51;1.70;;;1.60;;
19131;SDS011;9698;51.976;7.570;2023-10-08T06:58:22;1.87;;;1.77;;
19131;SDS011;9698;51.976;7.570;2023-10-08T07:00:50;1.70;;;1.60;;
19131;SDS011;9698;51.976;7.570;2023-10-08T07:03:18;2.00;;;1.50;;
19131;SDS011;9698;51.976;7.570;2023-10-08T07:05:47;1.67;;;1.50;;
19131;SDS011;9698;51.976;7.570;2023-10-08T07:08:25;1.63;;;1.53;;
19131;SDS011;9698;51.976;7.570;2023-10-08T07:10:58;2.03;;;1.80;;
19131;SDS011;9698;51.976;7.570;2023-10-08T07:13:27;2.10;;;1.90;;
19131;SDS011;9698;51.976;7.570;2023-10-08T07:15:56;2.20;;;2.00;;
19131;SDS011;9698;51.976;7.570;2023-10-08T07:18:30;2.00;;;1.80;;
19131;SDS011;9698;51.976;7.570;2023-10-08T07:21:00;2.80;;;2.07;;
19131;SDS011;9698;51.976;7.570;2023-10-08T07:23:38;2.13;;;2.00;;
19131;SDS011;9698;51.976;7.570;2023-10-08T07:26:22;2.67;;;2.30;;
19131;SDS011;9698;51.976;7.570;2023-10-08T07:28:51;1.93;;;1.70;;
19131;SDS011;9698;51.976;7.570;2023-10-08T07:31:20;3.00;;;1.80;;
19131;SDS011;9698;51.976;7.570;2023-10-08T07:33:48;1.90;;;1.47;;
19131;SDS011;9698;51.976;7.570;2023-10-08T07:36:22;5.53;;;1.90;;
19131;SDS011;9698;51.976;7.570;2023-10-08T07:38:51;6.10;;;1.60;;
19131;SDS011;9698;51.976;7.570;2023-10-08T07:41:19;4.20;;;1.73;;
19131;SDS011;9698;51.976;7.570;2023-10-08T07:43:47;5.83;;;1.80;;
19131;SDS011;9698;51.976;7.570;2023-10-08T07:46:21;2.33;;;1.30;;
19131;SDS011;9698;51.976;7.570;2023-10-08T07:48:49;4.90;;;1.70;;
19131;SDS011;9698;51.976;7.570;2023-10-08T07:51:17;7.27;;;1.60;;
19131;SDS011;9698;51.976;7.570;2023-10-08T07:53:48;5.33;;;1.60;;
19131;SDS011;9698;51.976;7.570;2023-10-08T07:56:20;3.77;;;1.63;;
19131;SDS011;9698;51.976;7.570;2023-10-08T07:58:48;3.07;;;1.43;;
19131;SDS011;9698;51.976;7.570;2023-10-08T08:01:16;3.53;;;1.40;;
19131;SDS011;9698;51.976;7.570;2023-10-08T08:03:47;3.93;;;1.63;;
19131;SDS011;9698;51.976;7.570;2023-10-08T08:06:16;2.40;;;1.50;;
19131;SDS011;9698;51.976;7.570;2023-10-08T08:08:44;3.27;;;1.73;;
19131;SDS011;9698;51.976;7.570;2023-10-08T08:11:12;2.60;;;1.53;;
19131;SDS011;9698;51.976;7.570;2023-10-08T08:13:43;4.40;;;2.17;;
19131;SDS011;9698;51.976;7.570;2023-10-08T08:16:12;2.97;;;2.00;;
19131;SDS011;9698;51.976;7.570;2023-10-08T08:18:43;2.97;;;1.70;;
19131;SDS011;9698;51.976;7.570;2023-10-08T08:21:12;3.40;;;2.00;;
19131;SDS011;9698;51.976;7.570;2023-10-08T08:23:42;3.77;;;2.20;;
19131;SDS011;9698;51.976;7.570;2023-10-08T08:26:14;4.57;;;2.20;;
19131;SDS011;9698;51.976;7.570;2023-10-08T08:28:53;3.77;;;2.13;;
19131;SDS011;9698;51.976;7.570;2023-10-08T08:31:23;4.43;;;1.87;;
19131;SDS011;9698;51.976;7.570;2023-10-08T08:33:51;2.97;;;1.93;;
19131;SDS011;9698;51.976;7.570;2023-10-08T08:36:20;3.10;;;1.97;;
19131;SDS011;9698;51.976;7.570;2023-10-08T08:38:48;2.77;;;1.77;;
19131;SDS011;9698;51.976;7.570;2023-10-08T08:41:16;3.33;;;1.87;;
19131;SDS011;9698;51.976;7.570;2023-10-08T08:43:47;3.93;;;1.90;;
19131;SDS011;9698;51.976;7.570;2023-10-08T08:46:15;3.73;;;1.97;;
19131;SDS011;9698;51.976;7.570;2023-10-08T08:48:44;3.57;;;1.73;;
19131;SDS011;9698;51.976;7.570;2023-10-08T08:51:14;2.70;;;1.67;;
19131;SDS011;9698;51.976;7.570;2023-10-08T08:53:42;2.83;;;2.00;;
19131;SDS011;9698;51.976;7.570;2023-10-08T08:56:10;4.30;;;1.70;;
19131;SDS011;9698;51.976;7.570;2023-10-08T08:58:39;4.23;;;1.80;;
19131;SDS011;9698;51.976;7.570;2023-10-08T09:01:07;4.03;;;1.83;;
19131;SDS011;9698;51.976;7.570;2023-10-08T09:03:39;3.00;;;1.60;;
19131;SDS011;9698;51.976;7.570;2023-10-08T09:06:08;3.07;;;1.63;;
19131;SDS011;9698;51.976;7.570;2023-10-08T09:08:37;3.13;;;1.70;;
19131;SDS011;9698;51.976;7.570;2023-10-08T09:11:13;1.97;;;1.40;;
19131;SDS011;9698;51.976;7.570;2023-10-08T09:13:42;5.13;;;1.70;;
19131;SDS011;9698;51.976;7.570;2023-10-08T09:16:12;4.33;;;1.80;;
19131;SDS011;9698;51.976;7.570;2023-10-08T09:18:41;2.00;;;1.67;;
19131;SDS011;9698;51.976;7.570;2023-10-08T09:21:11;4.60;;;1.77;;
19131;SDS011;9698;51.976;7.570;2023-10-08T09:23:41;2.60;;;1.60;;
19131;SDS011;9698;51.976;7.570;2023-10-08T09:26:10;5.27;;;1.97;;
19131;SDS011;9698;51.976;7.570;2023-10-08T09:28:40;4.17;;;1.70;;
19131;SDS011;9698;51.976;7.570;2023-10-08T09:31:13;3.57;;;1.70;;
19131;SDS011;9698;51.976;7.570;2023-10-08T09:33:41;3.53;;;1.70;;
19131;SDS011;9698;51.976;7.570;2023-10-08T09:36:10;2.90;;;1.83;;
19131;SDS011;9698;51.976;7.570;2023-10-08T09:38:45;5.30;;;2.13;;
19131;SDS011;9698;51.976;7.570;2023-10-08T09:41:14;3.40;;;1.80;;
19131;SDS011;9698;51.976;7.570;2023-10-08T09:43:44;3.73;;;1.70;;
19131;SDS011;9698;51.976;7.570;2023-10-08T09:46:15;3.87;;;2.03;;
19131;SDS011;9698;51.976;7.570;2023-10-08T09:48:49;4.57;;;1.97;;
19131;SDS011;9698;51.976;7.570;2023-10-08T09:51:19;6.00;;;1.90;;
19131;SDS011;9698;51.976;7.570;2023-10-08T09:53:51;2.97;;;1.60;;
19131;SDS011;9698;51.976;7.570;2023-10-08T09:56:24;6.23;;;2.80;;
19131;SDS011;9698;51.976;7.570;2023-10-08T09:58:56;30.17;;;10.83;;
19131;SDS011;9698;51.976;7.570;2023-10-08T10:01:24;18.40;;;7.80;;
19131;SDS011;9698;51.976;7.570;2023-10-08T10:03:52;15.20;;;6.43;;
19131;SDS011;9698;51.976;7.570;2023-10-08T10:06:22;32.37;;;12.10;;
19131;SDS011;9698;51.976;7.570;2023-10-08T10:08:50;19.57;;;6.83;;
19131;SDS011;9698;51.976;7.570;2023-10-08T10:11:19;14.57;;;6.07;;
19131;SDS011;9698;51.976;7.570;2023-10-08T10:13:50;11.17;;;4.90;;
19131;SDS011;9698;51.976;7.570;2023-10-08T10:16:26;9.57;;;4.10;;
19131;SDS011;9698;51.976;7.570;2023-10-08T10:18:57;12.30;;;6.10;;
19131;SDS011;9698;51.976;7.570;2023-10-08T10:21:31;13.53;;;6.80;;
19131;SDS011;9698;51.976;7.570;2023-10-08T10:24:00;5.10;;;2.93;;
19131;SDS011;9698;51.976;7.570;2023-10-08T10:26:29;6.57;;;3.27;;
19131;SDS011;9698;51.976;7.570;2023-10-08T10:32:04;6.57;;;3.00;;
19131;SDS011;9698;51.976;7.570;2023-10-08T10:34:31;5.97;;;2.53;;
19131;SDS011;9698;51.976;7.570;2023-10-08T10:37:04;5.33;;;2.07;;
19131;SDS011;9698;51.976;7.570;2023-10-08T10:39:36;18.97;;;6.10;;
19131;SDS011;9698;51.976;7.570;2023-10-08T10:42:07;11.23;;;3.80;;
19131;SDS011;9698;51.976;7.570;2023-10-08T10:44:46;6.83;;;3.13;;
19131;SDS011;9698;51.976;7.570;2023-10-08T10:47:19;4.27;;;1.70;;
19131;SDS011;9698;51.976;7.570;2023-10-08T10:49:54;4.60;;;1.97;;
19131;SDS011;9698;51.976;7.570;2023-10-08T10:52:45;3.93;;;2.00;;
19131;SDS011;9698;51.976;7.570;2023-10-08T10:55:18;5.07;;;2.27;;
19131;SDS011;9698;51.976;7.570;2023-10-08T10:57:57;5.83;;;1.90;;
19131;SDS011;9698;51.976;7.570;2023-10-08T11:00:38;4.60;;;1.90;;
19131;SDS011;9698;51.976;7.570;2023-10-08T11:03:23;5.97;;;2.33;;
19131;SDS011;9698;51.976;7.570;2023-10-08T11:05:56;6.53;;;2.30;;
19131;SDS011;9698;51.976;7.570;2023-10-08T11:08:26;5.37;;;2.50;;
19131;SDS011;9698;51.976;7.570;2023-10-08T11:11:01;5.07;;;2.10;;
19131;SDS011;9698;51.976;7.570;2023-10-08T11:13:33;8.67;;;3.20;;
19131;SDS011;9698;51.976;7.570;2023-10-08T11:16:05;5.57;;;2.70;;
19131;SDS011;9698;51.976;7.570;2023-10-08T11:18:40;6.57;;;3.20;;
19131;SDS011;9698;51.976;7.570;2023-10-08T11:21:10;24.47;;;7.87;;
19131;SDS011;9698;51.976;7.570;2023-10-08T11:23:42;15.30;;;5.77;;
19131;SDS011;9698;51.976;7.570;2023-10-08T11:26:18;8.37;;;4.43;;
19131;SDS011;9698;51.976;7.570;2023-10-08T11:28:48;7.27;;;3.50;;
19131;SDS011;9698;51.976;7.570;2023-10-08T11:31:16;9.43;;;3.57;;
19131;SDS011;9698;51.976;7.570;2023-10-08T11:33:46;8.10;;;3.60;;
19131;SDS011;9698;51.976;7.570;2023-10-08T11:36:20;8.23;;;4.10;;
19131;SDS011;9698;51.976;7.570;2023-10-08T11:38:54;5.40;;;3.57;;
19131;SDS011;9698;51.976;7.570;2023-10-08T11:41:28;7.40;;;3.93;;
19131;SDS011;9698;51.976;7.570;2023-10-08T11:43:56;8.37;;;4.30;;
19131;SDS011;9698;51.976;7.570;2023-10-08T11:46:26;7.17;;;3.40;;
19131;SDS011;9698;51.976;7.570;2023-10-08T11:48:59;9.20;;;4.00;;
19131;SDS011;9698;51.976;7.570;2023-10-08T11:51:31;8.87;;;3.83;;
19131;SDS011;9698;51.976;7.570;2023-10-08T11:53:59;9.60;;;3.63;;
19131;SDS011;9698;51.976;7.570;2023-10-08T11:56:28;6.63;;;3.27;;
19131;SDS011;9698;51.976;7.570;2023-10-08T11:58:56;5.90;;;3.37;;
19131;SDS011;9698;51.976;7.570;2023-10-08T12:01:26;4.83;;;2.97;;
19131;SDS011;9698;51.976;7.570;2023-10-08T12:03:54;5.63;;;3.30;;
19131;SDS011;9698;51.976;7.570;2023-10-08T12:06:25;3.97;;;2.40;;
19131;SDS011;9698;51.976;7.570;2023-10-08T12:08:56;5.93;;;2.63;;
19131;SDS011;9698;51.976;7.570;2023-10-08T12:11:25;6.77;;;3.73;;
19131;SDS011;9698;51.976;7.570;2023-10-08T12:13:57;7.73;;;4.37;;
19131;SDS011;9698;51.976;7.570;2023-10-08T12:16:26;5.30;;;3.60;;
19131;SDS011;9698;51.976;7.570;2023-10-08T12:18:56;6.93;;;3.80;;
19131;SDS011;9698;51.976;7.570;2023-10-08T12:21:25;7.97;;;2.93;;
19131;SDS011;9698;51.976;7.570;2023-10-08T12:23:56;4.07;;;2.73;;
19131;SDS011;9698;51.976;7.570;2023-10-08T12:26:24;5.40;;;2.90;;
19131;SDS011;9698;51.976;7.570;2023-10-08T12:28:52;7.20;;;2.40;;
19131;SDS011;9698;51.976;7.570;2023-10-08T12:31:21;11.40;;;4.50;;
19131;SDS011;9698;51.976;7.570;2023-10-08T12:33:50;7.83;;;3.10;;
19131;SDS011;9698;51.976;7.570;2023-10-08T12:36:20;12.50;;;5.77;;
19131;SDS011;9698;51.976;7.570;2023-10-08T12:38:49;34.93;;;12.20;;
19131;SDS011;9698;51.976;7.570;2023-10-08T12:41:23;33.27;;;10.20;;
19131;SDS011;9698;51.976;7.570;2023-10-08T12:43:53;7.57;;;3.97;;
19131;SDS011;9698;51.976;7.570;2023-10-08T12:46:21;28.20;;;9.20;;
19131;SDS011;9698;51.976;7.570;2023-10-08T12:48:50;13.67;;;5.67;;
19131;SDS011;9698;51.976;7.570;2023-10-08T12:51:20;210.50;;;57.93;;
19131;SDS011;9698;51.976;7.570;2023-10-08T12:53:50;101.13;;;31.17;;
19131;SDS011;9698;51.976;7.570;2023-10-08T12:56:25;113.10;;;35.13;;
19131;SDS011;9698;51.976;7.570;2023-10-08T12:58:58;69.43;;;22.37;;
19131;SDS011;9698;51.976;7.570;2023-10-08T13:01:30;49.27;;;16.27;;
19131;SDS011;9698;51.976;7.570;2023-10-08T13:03:58;49.93;;;22.97;;
19131;SDS011;9698;51.976;7.570;2023-10-08T13:06:27;45.80;;;23.93;;
19131;SDS011;9698;51.976;7.570;2023-10-08T13:08:55;34.37;;;14.03;;
19131;SDS011;9698;51.976;7.570;2023-10-08T13:11:24;33.03;;;15.13;;
19131;SDS011;9698;51.976;7.570;2023-10-08T13:13:56;27.17;;;13.67;;
19131;SDS011;9698;51.976;7.570;2023-10-08T13:16:24;27.70;;;12.50;;
19131;SDS011;9698;51.976;7.570;2023-10-08T13:18:57;21.97;;;10.13;;
19131;SDS011;9698;51.976;7.570;2023-10-08T13:21:26;32.90;;;14.77;;
19131;SDS011;9698;51.976;7.570;2023-10-08T13:23:55;25.43;;;17.40;;
19131;SDS011;9698;51.976;7.570;2023-10-08T13:26:23;39.17;;;27.53;;
19131;SDS011;9698;51.976;7.570;2023-10-08T13:28:55;40.90;;;30.47;;
19131;SDS011;9698;51.976;7.570;2023-10-08T13:31:24;38.03;;;25.43;;
19131;SDS011;9698;51.976;7.570;2023-10-08T13:33:52;37.33;;;22.63;;
19131;SDS011;9698;51.976;7.570;2023-10-08T13:36:23;36.57;;;20.03;;
19131;SDS011;9698;51.976;7.570;2023-10-08T13:38:51;41.97;;;26.77;;
19131;SDS011;9698;51.976;7.570;2023-10-08T13:41:21;85.23;;;55.57;;
19131;SDS011;9698;51.976;7.570;2023-10-08T13:43:50;44.40;;;29.27;;
19131;SDS011;9698;51.976;7.570;2023-10-08T13:46:19;28.73;;;16.93;;
19131;SDS011;9698;51.976;7.570;2023-10-08T13:48:49;20.53;;;11.17;;
19131;SDS011;9698;51.976;7.570;2023-10-08T13:51:17;16.33;;;9.60;;
19131;SDS011;9698;51.976;7.570;2023-10-08T13:53:48;17.17;;;8.17;;
19131;SDS011;9698;51.976;7.570;2023-10-08T13:56:18;13.57;;;6.60;;
19131;SDS011;9698;51.976;7.570;2023-10-08T13:58:51;11.40;;;5.03;;
19131;SDS011;9698;51.976;7.570;2023-10-08T14:01:22;9.97;;;4.33;;
19131;SDS011;9698;51.976;7.570;2023-10-08T14:03:52;10.07;;;5.07;;
19131;SDS011;9698;51.976;7.570;2023-10-08T14:06:22;5.37;;;3.17;;
19131;SDS011;9698;51.976;7.570;2023-10-08T14:08:51;11.17;;;5.10;;
19131;SDS011;9698;51.976;7.570;2023-10-08T14:11:21;6.97;;;3.80;;
19131;SDS011;9698;51.976;7.570;2023-10-08T14:13:50;6.90;;;1.80;;
19131;SDS011;9698;51.976;7.570;2023-10-08T14:16:18;6.17;;;1.70;;
19131;SDS011;9698;51.976;7.570;2023-10-08T14:18:50;5.13;;;1.60;;
19131;SDS011;9698;51.976;7.570;2023-10-08T14:21:20;2.60;;;1.60;;
19131;SDS011;9698;51.976;7.570;2023-10-08T14:23:50;2.33;;;1.50;;
19131;SDS011;9698;51.976;7.570;2023-10-08T14:26:24;3.40;;;1.50;;
19131;SDS011;9698;51.976;7.570;2023-10-08T14:29:01;2.30;;;1.50;;
19131;SDS011;9698;51.976;7.570;2023-10-08T14:31:34;3.77;;;1.30;;
19131;SDS011;9698;51.976;7.570;2023-10-08T14:34:05;1.63;;;1.30;;
19131;SDS011;9698;51.976;7.570;2023-10-08T14:36:45;3.63;;;1.70;;
19131;SDS011;9698;51.976;7.570;2023-10-08T14:39:32;2.40;;;1.73;;
19131;SDS011;9698;51.976;7.570;2023-10-08T14:42:18;3.47;;;2.00;;
19131;SDS011;9698;51.976;7.570;2023-10-08T14:45:05;2.27;;;1.67;;
19131;SDS011;9698;51.976;7.570;2023-10-08T14:47:37;2.10;;;1.47;;
19131;SDS011;9698;51.976;7.570;2023-10-08T14:50:06;1.60;;;1.40;;
19131;SDS011;9698;51.976;7.570;2023-10-08T14:52:42;2.80;;;1.50;;
19131;SDS011;9698;51.976;7.570;2023-10-08T14:55:10;4.23;;;2.03;;
19131;SDS011;9698;51.976;7.570;2023-10-08T14:57:38;3.00;;;1.80;;
19131;SDS011;9698;51.976;7.570;2023-10-08T15:00:09;3.60;;;1.50;;
19131;SDS011;9698;51.976;7.570;2023-10-08T15:02:38;2.17;;;1.40;;
19131;SDS011;9698;51.976;7.570;2023-10-08T15:05:06;2.93;;;1.57;;
19131;SDS011;9698;51.976;7.570;2023-10-08T15:07:37;3.07;;;1.80;;
19131;SDS011;9698;51.976;7.570;2023-10-08T15:10:06;2.57;;;1.60;;
19131;SDS011;9698;51.976;7.570;2023-10-08T15:12:35;2.80;;;1.53;;
19131;SDS011;9698;51.976;7.570;2023-10-08T15:15:05;1.83;;;1.40;;
19131;SDS011;9698;51.976;7.570;2023-10-08T15:17:39;3.13;;;1.70;;
19131;SDS011;9698;51.976;7.570;2023-10-08T15:20:09;2.10;;;1.47;;
19131;SDS011;9698;51.976;7.570;2023-10-08T15:22:41;3.63;;;1.57;;
19131;SDS011;9698;51.976;7.570;2023-10-08T15:25:09;3.47;;;1.77;;
19131;SDS011;9698;51.976;7.570;2023-10-08T15:27:37;3.20;;;1.50;;